createdAt,value
2024-04-19T00:09:25.855Z,0.90
2024-04-19T00:31:57.880Z,0.70
2024-04-19T00:54:29.935Z,1.25
2024-04-19T01:17:01.926Z,1.63
2024-04-19T01:39:33.935Z,2.20
2024-04-19T02:24:38.147Z,2.30
2024-04-19T02:47:10.156Z,3.80
2024-04-19T03:32:13.956Z,2.65
2024-04-19T04:17:17.877Z,3.55
2024-04-19T04:39:49.938Z,2.80
2024-04-19T05:02:21.996Z,3.13
2024-04-19T05:24:54.003Z,2.70
2024-04-19T05:47:25.946Z,3.58
2024-04-19T06:09:57.976Z,3.10
2024-04-19T06:32:30.133Z,3.75
2024-04-19T06:55:02.252Z,2.17
2024-04-19T07:17:35.724Z,1.70
2024-04-19T07:40:09.718Z,1.23
2024-04-19T08:02:41.705Z,0.70
2024-04-19T08:25:13.619Z,0.60
2024-04-19T08:47:47.208Z,0.60
2024-04-19T09:10:22.883Z,0.55
2024-04-19T09:55:36.604Z,0.90
2024-04-19T10:18:09.029Z,0.75
2024-04-19T10:40:41.579Z,0.70
2024-04-19T11:03:19.875Z,1.15
2024-04-19T11:25:56.833Z,1.67
2024-04-19T11:48:29.625Z,1.17
2024-04-19T12:11:01.960Z,0.63
2024-04-19T12:33:34.306Z,1.00
2024-04-19T12:56:07.210Z,0.50
2024-04-19T13:18:39.395Z,0.90
2024-04-19T13:41:11.435Z,1.52
2024-04-19T14:03:43.756Z,1.63
2024-04-19T14:26:22.764Z,0.90
2024-04-19T14:48:55.556Z,1.50
2024-04-19T15:11:27.656Z,1.67
2024-04-19T15:34:09.874Z,0.50
2024-04-19T15:56:51.966Z,0.60
2024-04-19T16:19:24.803Z,1.05
2024-04-19T16:41:58.190Z,0.98
2024-04-19T17:04:30.589Z,1.33
2024-04-19T17:27:02.702Z,0.70
2024-04-19T17:49:34.754Z,0.80
2024-04-19T18:12:08.083Z,0.80
2024-04-19T18:34:39.946Z,0.85
2024-04-19T19:19:44.354Z,1.85
2024-04-19T19:42:16.798Z,1.58
2024-04-19T20:05:07.268Z,1.20
2024-04-19T20:27:39.281Z,1.10
2024-04-19T20:50:16.921Z,1.15
2024-04-19T21:35:20.874Z,1.13
2024-04-19T22:20:27.402Z,1.27
2024-04-19T22:42:59.349Z,0.93
2024-04-19T23:05:31.277Z,0.80
2024-04-19T23:28:03.326Z,1.00
